Flight Track Log - Related Links

Times and Time Zones

All times are in EDT time to prevent confusion due to time zone crossing. See the CNS5150 flight status page for this flight to view local times or setup timezone preferences in your user account.

Time Position Orientation Groundspeed Altitude Reporting Facility
EDT Latitude Longitude Course Direction KTS MPH feet Rate Location/Type
Wed 05:11:04 PM 35.3425 -82.5875 223° Southwest 162 186 7,500  Level Atlanta Center
Wed 05:12:04 PM 35.3242 -82.6336 244° Southwest 167 192 8,700 1,200 Climbing Atlanta Center
Wed 05:13:04 PM 35.2872 -82.6725 221° Southwest 172 198 9,900 1,200 Climbing Atlanta Center
Wed 05:14:00 PM 35.1808 -82.7859 219° Southwest  Level FlightAware Approximate
Wed 05:14:04 PM 35.2500 -82.7136 222° Southwest 189 217 11,100  Level Atlanta Center
Wed 05:15:00 PM 35.1398 -82.8307 223° Southwest  Level FlightAware Approximate
Wed 05:15:04 PM 35.2089 -82.7575 221° Southwest 196 226 12,000  Level Atlanta Center
Wed 05:16:04 PM 35.1572 -82.8117 221° Southwest 222 255 12,000  Level Atlanta Center
Wed 05:17:04 PM 35.1033 -82.8683 221° Southwest 245 282 12,000  Level Atlanta Center
Wed 05:18:04 PM 35.0519 -82.9250 222° Southwest 256 295 12,000  Level Atlanta Center
Wed 05:19:04 PM 34.9981 -82.9814 221° Southwest 261 300 12,000  Level Atlanta Center
Wed 05:20:04 PM 34.9442 -83.0403 222° Southwest 261 300 12,000 -50 Level Atlanta Center
Wed 05:21:04 PM 34.8842 -83.0994 219° Southwest 261 300 11,900 -50 Descending Atlanta Center
Wed 05:22:04 PM 34.8303 -83.1556 221° Southwest 255 293 11,900  Level Atlanta Center
Wed 05:23:04 PM 34.7869 -83.2167 229° Southwest 248 285 11,900 -250 Level Atlanta Center
Wed 05:24:04 PM 34.7289 -83.2656 215° Southwest 254 292 11,400 -450 Descending Atlanta Center
Wed 05:25:04 PM 34.6792 -83.3342 229° Southwest 259 298 11,000 -400 Descending Atlanta Center
Wed 05:26:04 PM 34.6567 -83.4200 252° West 264 304 10,600 -500 Descending Atlanta Center
Wed 05:27:04 PM 34.6258 -83.5111 248° West 278 320 10,000 -750 Descending Atlanta Center
Wed 05:28:04 PM 34.6033 -83.5972 252° West 283 326 9,100 -950 Descending Atlanta Center
Wed 05:29:04 PM 34.5764 -83.6831 249° West 283 326 8,100 -550 Descending Atlanta Center
Wed 05:30:04 PM 34.5475 -83.7614 246° West 270 311 8,000 -250 Descending Atlanta Center
Wed 05:31:04 PM 34.4933 -83.8044 213° Southwest 235 270 7,600 -650 Descending Atlanta Center
Wed 05:32:04 PM 34.4244 -83.8247 194° South 245 282 6,700 -800 Descending Atlanta Center
Wed 05:33:04 PM 34.3472 -83.8450 192° South 259 298 6,000 -350 Descending Atlanta Center
Wed 05:34:04 PM 34.2889 -83.8803 207° Southwest 253 291 6,000  Level Atlanta Center
Wed 05:35:04 PM 34.2283 -83.9158 206° Southwest 247 284 6,000  Level Atlanta Center
Wed 05:36:04 PM 34.1700 -83.9483 205° Southwest 237 273 6,000  Level Atlanta Center
Wed 05:36:54 PM 34.1167 -83.9667 196° South 227 261 6,000  Level Atlanta TRACON
Wed 05:37:54 PM 34.0500 -83.9667 180° South 228 262 6,000  Level Atlanta TRACON
Wed 05:38:48 PM 34.0000 -83.9833 195° South 223 257 6,000 -250 Level Atlanta TRACON
Wed 05:39:54 PM 33.9333 -83.9833 180° South 229 264 5,500 -667 Descending Atlanta TRACON
Wed 05:40:54 PM 33.8833 -84.0333 220° Southwest 237 273 4,600 -950 Descending Atlanta TRACON
Wed 05:41:54 PM 33.8500 -84.1000 239° Southwest 241 277 3,600 -789 Descending Atlanta TRACON
Wed 05:42:48 PM 33.8333 -84.1667 253° West 234 269 3,100 -579 Descending Atlanta TRACON
Wed 05:43:48 PM 33.8167 -84.2333 253° West 205 236 2,500 -400 Descending Atlanta TRACON
Wed 05:44:48 PM 33.8333 -84.2833 292° West 159 183 2,300 -550 Descending Atlanta TRACON
Wed 05:45:48 PM 33.8500 -84.3167 301° West 114 131 1,400 -900 Descending Atlanta TRACON
Wed 05:47:00 PM 33.8756 -84.3020 25° Northeast  Level Estimated
Wed 05:54:00 PM 33.8756 -84.3020 301° West  Level Estimated

Login

Don't have an account? Register now (free) for customized features, flight alerts, and more!